Terminal Aerodrome Forecast
Issued by NWS

Home | Current Version | Previous Version | Text Only | Print | Product List | Glossary On
Versions: 1 2 3 4 5 6 7 8 9 10 11 12 13 14 15 16 17 18
808
FTUS41 KCAR 240538
TAFPQI
TAF
KPQI 240538Z 2406/2506 04005KT P6SM OVC200
     FM241400 06009KT P6SM OVC040
     FM241600 06010KT 2SM -SNPL OVC015
     FM241800 07011KT 1SM -SNPL BR OVC008
     FM242000 06012G22KT 1SM -FZRAPL BR OVC010=

USA.gov is the U.S. government's official web portal to all federal, state and local government web resources and services.